Latest Weather Observations for Mangrove Mountain

IDN60801

Issued at 11:03 pm EST Saturday 19 August 2017 (issued every 30 minutes, with the page automatically refreshed every 10 minutes)

About weather observations | Map of weather stations | Latest weather observations for NSW | Other Formats
Station Details ID: 061375 Name: MANGROVE MOUNTAIN AWS Lat: -33.29 Lon: 151.21 Height: 305.0 m
Data from the previous 72 hours. | See also: Recent months at Mangrove Mountain
Date/Time
EST
Temp
°C
App
Temp
°C
Dew
Point
°C
Rel
Hum
%
Delta-T
°C
Wind Press
QNH
hPa
Press
MSL
hPa
Rain since
9am
mm
Dir  Spd
km/h
Gust
km/h
Spd
kts
Gust
kts
19/11:00pm 7.0 4.2 2.1 71 2.0 WSW 6 15 3 8 - - 0.0
19/10:30pm 7.5 4.2 2.6 71 2.1 WSW 9 15 5 8 - - 0.0
19/10:00pm 7.3 4.4 2.6 72 2.0 WSW 7 13 4 7 - - 0.0
19/09:30pm 7.7 5.0 2.8 71 2.1 WSW 6 15 3 8 - - 0.0
19/09:00pm 8.3 5.7 3.4 71 2.1 SW 6 15 3 8 - - 0.0
19/08:30pm 8.6 6.1 3.6 71 2.2 SW 6 13 3 7 - - 0.0
19/08:00pm 8.5 6.0 3.6 71 2.2 SSW 6 11 3 6 - - 0.0
19/07:30pm 8.4 5.7 2.6 67 2.5 SSW 6 15 3 8 - - 0.0
19/07:00pm 8.5 6.0 1.6 62 2.9 S 4 9 2 5 - - 0.0
19/06:30pm 8.5 5.5 0.5 57 3.3 S 6 9 3 5 - - 0.0
19/06:00pm 8.6 5.9 0.3 56 3.4 S 4 6 2 3 - - 0.0
19/05:30pm 9.8 6.7 0.2 51 3.9 S 6 11 3 6 - - 0.0
19/05:00pm 10.9 6.8 -0.2 46 4.6 S 11 20 6 11 - - 0.0
19/04:30pm 11.9 8.1 -0.6 42 5.1 SSW 9 19 5 10 - - 0.0
19/04:00pm 12.1 8.3 -1.1 40 5.4 SSW 9 19 5 10 - - 0.0
19/03:30pm 12.6 7.9 -1.7 37 5.8 SSW 13 30 7 16 - - 0.0
19/03:00pm 13.4 9.2 -1.0 37 6.0 SW 11 26 6 14 - - 0.0
19/02:30pm 12.6 7.5 -1.7 37 5.8 SW 15 32 8 17 - - 0.0
19/02:00pm 12.6 8.4 -1.0 39 5.6 SSW 11 32 6 17 - - 0.0
19/01:30pm 12.2 7.1 -1.7 38 5.6 SSW 15 28 8 15 - - 0.0
19/01:00pm 13.6 8.4 -0.1 39 5.8 WSW 17 28 9 15 - - 0.0
19/12:30pm 13.4 8.1 -0.3 39 5.8 WSW 17 26 9 14 - - 0.0
19/12:00pm 12.0 6.1 -2.2 37 5.6 SW 19 35 10 19 - - 0.0
19/11:30am 12.1 6.7 -1.1 40 5.4 SW 17 35 9 19 - - 0.0
19/11:00am 12.1 7.5 -0.7 41 5.3 SW 13 24 7 13 - - 0.0
19/10:30am 11.2 6.6 -1.2 42 5.0 SW 13 28 7 15 - - 0.0
19/10:00am 10.5 4.6 -1.9 42 4.9 WSW 19 30 10 16 - - 0.0
19/09:30am 10.0 4.6 -1.4 45 4.5 WSW 17 30 9 16 - - 0.0
19/09:00am 9.3 4.3 -1.4 47 4.2 WSW 15 32 8 17 - - 0.0
19/02:30am 6.3 2.2 -0.2 63 2.5 W 11 19 6 10 - - 0.0
19/02:00am 4.8 1.4 -0.6 68 2.1 W 7 11 4 6 - - 0.0
19/01:30am 6.2 2.8 -0.3 63 2.5 W 7 13 4 7 - - 0.0
19/01:00am 6.7 3.0 -0.1 62 2.7 W 9 15 5 8 - - 0.0
19/12:30am 6.9 3.2 -0.1 61 2.8 W 9 13 5 7 - - 0.0
19/12:00am 7.6 3.9 0.1 59 3.0 W 9 17 5 9 - - 0.0
 
Date/Time
EST
Temp
°C
App
Temp
°C
Dew
Point
°C
Rel
Hum
%
Delta-T
°C
Wind Press
QNH
hPa
Press
MSL
hPa
Rain since
9am
mm
Dir  Spd
km/h
Gust
km/h
Spd
kts
Gust
kts
18/11:30pm 7.2 3.8 -0.3 59 3.0 W 7 15 4 8 - - 0.0
18/11:00pm 7.8 3.7 -0.2 57 3.2 W 11 17 6 9 - - 0.0
18/10:30pm 8.1 4.4 -0.1 56 3.3 W 9 17 5 9 - - 0.0
18/10:00pm 8.2 4.5 -0.3 55 3.4 W 9 15 5 8 - - 0.0
18/09:30pm 8.6 4.2 0.1 55 3.4 W 13 24 7 13 - - 0.0
18/09:00pm 8.4 3.6 0.1 56 3.3 W 15 28 8 15 - - 0.0
18/08:30pm 8.5 3.8 0.7 58 3.2 W 15 30 8 16 - - 0.0
18/08:00pm 8.6 3.5 0.8 58 3.2 W 17 30 9 16 - - 0.0
18/07:30pm 8.8 3.3 0.5 56 3.4 W 19 41 10 22 - - 0.0
18/07:00pm 9.1 3.4 0.6 55 3.5 WNW 20 39 11 21 - - 0.0
18/06:30pm 9.2 2.7 0.1 53 3.7 W 24 46 13 25 - - 0.0
18/06:00pm 9.2 3.7 0.4 54 3.6 W 19 32 10 17 - - 0.0
18/05:30pm 9.7 3.2 0.6 53 3.8 W 24 44 13 24 - - 0.0
18/05:23pm 9.9 2.7 0.5 52 3.9 W 28 50 15 27 - - 0.0
18/05:00pm 11.3 4.8 0.1 46 4.7 W 24 43 13 23 - - 0.0
18/04:46pm 11.8 4.4 -0.4 43 5.0 W 28 48 15 26 - - 0.0
18/04:30pm 12.4 5.8 -0.5 41 5.3 W 24 43 13 23 - - 0.0
18/04:00pm 13.2 5.4 -0.8 38 5.8 W 30 65 16 35 - - 0.0
18/03:30pm 13.6 6.2 -0.4 38 5.9 W 28 61 15 33 - - 0.0
18/03:00pm 13.8 5.7 -0.6 37 6.0 W 32 54 17 29 - - 0.0
18/02:30pm 14.2 6.9 0.1 38 6.0 W 28 50 15 27 - - 0.0
18/02:00pm 14.2 6.9 -0.3 37 6.1 WNW 28 46 15 25 - - 0.0
18/01:30pm 14.5 7.2 0.0 37 6.2 W 28 52 15 28 - - 0.0
18/01:00pm 14.2 6.9 0.1 38 6.0 W 28 59 15 32 - - 0.0
18/12:39pm 14.3 7.1 0.9 40 5.8 W 28 50 15 27 - - 0.0
18/12:30pm 14.7 8.4 1.3 40 5.9 W 24 46 13 25 - - 0.0
18/12:00pm 13.7 5.7 0.7 41 5.6 W 32 52 17 28 - - 0.0
18/11:30am 13.5 6.3 0.9 42 5.4 W 28 56 15 30 - - 0.0
18/11:20am 13.4 6.3 1.1 43 5.3 WNW 28 50 15 27 - - 0.0
18/11:00am 13.1 6.3 0.5 42 5.4 W 26 46 14 25 - - 0.0
18/10:30am 13.2 6.0 0.9 43 5.3 WNW 28 46 15 25 - - 0.0
18/10:00am 12.9 6.6 1.3 45 5.0 WNW 24 41 13 22 - - 0.0
18/09:30am 12.6 6.7 1.9 48 4.7 WNW 22 33 12 18 - - 0.0
18/09:00am 12.2 7.0 2.4 51 4.3 W 19 41 10 22 - - 0.0
18/08:30am 11.3 5.4 1.5 51 4.2 W 22 39 12 21 - - 0.0
18/08:00am 10.9 6.8 2.2 55 3.8 WNW 13 26 7 14 - - 0.0
18/07:30am 10.0 5.1 1.9 57 3.5 WNW 17 28 9 15 - - 0.0
18/07:00am 9.5 5.0 1.9 59 3.2 W 15 28 8 15 - - 0.0
18/06:30am 9.8 4.9 1.9 58 3.4 W 17 32 9 17 - - 0.0
18/06:00am 10.2 4.7 1.8 56 3.6 W 20 37 11 20 - - 0.0
18/05:30am 11.1 6.7 2.7 56 3.7 WSW 15 30 8 16 - - 0.0
18/05:00am 11.7 6.5 2.7 54 4.0 W 19 30 10 16 - - 0.0
18/04:30am 11.6 7.1 2.1 52 4.1 W 15 24 8 13 - - 0.0
18/04:00am 11.9 8.0 1.3 48 4.6 W 11 20 6 11 - - 0.0
18/03:30am 11.7 8.3 -0.4 43 5.0 WSW 7 13 4 7 - - 0.0
18/03:00am 12.4 9.0 -0.8 40 5.4 W 7 11 4 6 - - 0.0
18/02:30am 13.1 8.9 -0.9 38 5.8 WNW 11 26 6 14 - - 0.0
18/02:00am 13.0 8.8 -1.0 38 5.8 WNW 11 19 6 10 - - 0.0
18/01:30am 13.0 8.8 -0.6 39 5.7 WNW 11 26 6 14 - - 0.0
18/01:00am 12.8 8.7 -0.1 41 5.4 WNW 11 19 6 10 - - 0.0
18/12:30am 12.6 9.3 0.4 43 5.2 W 7 13 4 7 - - 0.0
18/12:00am 13.2 9.6 0.3 41 5.5 W 9 17 5 9 - - 0.0
 
Date/Time
EST
Temp
°C
App
Temp
°C
Dew
Point
°C
Rel
Hum
%
Delta-T
°C
Wind Press
QNH
hPa
Press
MSL
hPa
Rain since
9am
mm
Dir  Spd
km/h
Gust
km/h
Spd
kts
Gust
kts
17/11:30pm 13.2 9.2 0.3 41 5.5 W 11 24 6 13 - - 0.0
17/11:00pm 13.1 9.5 0.5 42 5.4 WNW 9 17 5 9 - - 0.0
17/10:30pm 13.0 9.9 0.4 42 5.4 WNW 6 11 3 6 - - 0.0
17/10:00pm 12.7 9.7 0.5 43 5.2 WNW 6 9 3 5 - - 0.0
17/09:30pm 13.1 10.0 0.2 41 5.5 NW 6 9 3 5 - - 0.0
17/09:00pm 13.7 10.4 0.0 39 5.8 NW 7 13 4 7 - - 0.0
17/08:30pm 13.7 10.6 0.0 39 5.8 WNW 6 11 3 6 - - 0.0
17/08:00pm 14.4 11.1 0.3 38 6.1 WNW 7 17 4 9 - - 0.0
17/07:30pm 14.3 11.0 0.2 38 6.0 WNW 7 11 4 6 - - 0.0
17/07:00pm 15.0 11.7 0.1 36 6.4 WNW 7 17 4 9 - - 0.0
17/06:30pm 15.8 11.4 0.4 35 6.7 WNW 13 24 7 13 - - 0.0
17/06:00pm 15.9 12.7 0.5 35 6.7 WNW 7 15 4 8 - - 0.0
17/05:30pm 16.6 12.6 0.7 34 7.0 WNW 11 24 6 13 - - 0.0
17/05:00pm 17.5 13.5 0.6 32 7.5 WNW 11 20 6 11 - - 0.0
17/04:30pm 18.6 13.8 0.2 29 8.2 WNW 15 28 8 15 - - 0.0
17/04:00pm 19.3 13.8 0.4 28 8.5 WNW 19 35 10 19 - - 0.0
17/03:30pm 19.7 14.1 -0.3 26 8.9 WNW 19 37 10 20 - - 0.0
17/03:00pm 20.1 14.5 0.0 26 9.0 WNW 19 33 10 18 - - 0.0
17/02:30pm 20.4 15.8 1.3 28 8.8 WNW 15 30 8 16 - - 0.0
17/02:00pm 20.3 15.8 2.2 30 8.5 WNW 15 30 8 16 - - 0.0
17/01:30pm 20.1 15.3 2.5 31 8.3 WNW 17 32 9 17 - - 0.0
17/01:00pm 19.8 14.8 1.3 29 8.5 WNW 17 28 9 15 - - 0.0
17/12:30pm 19.1 14.2 2.0 32 7.9 WNW 17 32 9 17 - - 0.0
17/12:00pm 18.5 13.2 1.9 33 7.6 WNW 19 37 10 20 - - 0.0
17/11:30am 17.7 12.8 2.1 35 7.2 WNW 17 32 9 17 - - 0.0
17/11:00am 17.0 11.7 1.8 36 6.9 WNW 19 32 10 17 - - 0.0
17/10:30am 16.7 12.0 3.1 40 6.3 WNW 17 28 9 15 - - 0.0
17/10:00am 16.0 11.8 3.8 44 5.7 WNW 15 28 8 15 - - 0.0
17/09:30am 15.3 10.6 3.1 44 5.6 WNW 17 32 9 17 - - 0.0
17/09:00am 14.6 10.3 3.4 47 5.2 WNW 15 24 8 13 - - 0.0
17/08:30am 13.4 9.9 3.5 51 4.5 WNW 11 20 6 11 - - 0.0
17/08:00am 12.6 9.5 3.6 54 4.1 WNW 9 17 5 9 - - 0.0
17/07:30am 11.2 7.7 3.3 58 3.5 WNW 11 20 6 11 - - 0.0
17/07:00am 10.3 7.1 2.9 60 3.2 WNW 9 17 5 9 - - 0.0
17/06:30am 10.1 6.8 2.7 60 3.2 WNW 9 17 5 9 - - 0.0
17/06:00am 10.4 6.8 2.7 59 3.4 WNW 11 17 6 9 - - 0.0
17/05:30am 10.7 7.1 3.0 59 3.4 WNW 11 19 6 10 - - 0.0
17/05:00am 10.6 7.0 3.2 60 3.3 WNW 11 17 6 9 - - 0.0
17/04:30am 10.4 7.2 3.2 61 3.2 WNW 9 13 5 7 - - 0.0
17/04:00am 10.6 7.4 3.2 60 3.3 WNW 9 15 5 8 - - 0.0
17/03:30am 10.9 7.7 3.2 59 3.4 WNW 9 13 5 7 - - 0.0
17/03:00am 11.1 8.0 3.4 59 3.4 WNW 9 19 5 10 - - 0.0
17/02:30am 11.2 8.1 3.5 59 3.5 NW 9 19 5 10 - - 0.0
17/02:00am 11.0 7.9 3.8 61 3.2 WNW 9 15 5 8 - - 0.0
17/01:30am 10.8 7.7 3.4 60 3.3 WNW 9 17 5 9 - - 0.0
17/01:00am 10.8 8.0 3.4 60 3.3 WNW 7 17 4 9 - - 0.0
17/12:30am 11.2 8.4 3.3 58 3.5 WNW 7 13 4 7 - - 0.0
17/12:00am 11.6 8.4 3.1 56 3.8 WNW 9 15 5 8 - - 0.0
 
Date/Time
EST
Temp
°C
App
Temp
°C
Dew
Point
°C
Rel
Hum
%
Delta-T
°C
Wind Press
QNH
hPa
Press
MSL
hPa
Rain since
9am
mm
Dir  Spd
km/h
Gust
km/h
Spd
kts
Gust
kts
16/11:30pm 11.9 8.7 2.9 54 4.0 WNW 9 15 5 8 - - 0.0

Other Formats:

Comma delimited format used in spreadsheet applications
http://www.bom.gov.au/fwo/IDN60801/IDN60801.95774.axf

JavaScript Object Notation format (JSON) in row-major order
http://www.bom.gov.au/fwo/IDN60801/IDN60801.95774.json